createdAt,value
2022-10-11T00:02:01.160Z,102086.94
2022-10-11T00:06:12.693Z,102098.63
2022-10-11T00:10:24.610Z,102081.97
2022-10-11T00:14:36.249Z,102097.81
2022-10-11T00:18:54.614Z,102107.72
2022-10-11T00:23:06.188Z,102108.03
2022-10-11T00:27:17.703Z,102111.22
2022-10-11T00:31:34.706Z,102101.06
2022-10-11T00:35:47.280Z,102123.41
2022-10-11T00:39:58.891Z,102123.75
2022-10-11T00:44:18.666Z,102126.63
2022-10-11T00:48:48.840Z,102120.63
2022-10-11T00:53:05.700Z,102132.81
2022-10-11T00:57:22.733Z,102144.69
2022-10-11T01:01:34.450Z,102132.31
2022-10-11T01:05:46.223Z,102129.63
2022-10-11T01:09:58.349Z,102127.81
2022-10-11T01:14:43.512Z,102145.84
2022-10-11T01:19:04.817Z,102149.50
2022-10-11T01:23:53.873Z,102145.00
2022-10-11T01:28:30.671Z,102155.38
2022-10-11T01:32:55.973Z,102152.53
2022-10-11T01:37:16.692Z,102152.22
2022-10-11T01:41:35.397Z,102167.91
2022-10-11T01:45:51.649Z,102158.88
2022-10-11T01:50:03.862Z,102173.56
2022-10-11T01:55:09.056Z,102174.25
2022-10-11T01:59:33.662Z,102169.25
2022-10-11T02:03:55.122Z,102173.59
2022-10-11T02:08:45.021Z,102169.72
2022-10-11T02:13:20.733Z,102160.88
2022-10-11T02:17:36.675Z,102173.06
2022-10-11T02:21:54.495Z,102158.69
2022-10-11T02:26:07.417Z,102172.34
2022-10-11T02:30:19.410Z,102165.03
2022-10-11T02:34:35.459Z,102167.00
2022-10-11T02:38:54.838Z,102161.31
2022-10-11T02:43:36.481Z,102172.47
2022-10-11T02:47:48.498Z,102178.34
2022-10-11T02:52:00.389Z,102171.47
2022-10-11T02:56:12.029Z,102168.28
2022-10-11T03:00:23.565Z,102177.63
2022-10-11T03:04:35.118Z,102173.78
2022-10-11T03:08:46.676Z,102179.06
2022-10-11T03:12:58.255Z,102174.41
2022-10-11T03:17:34.346Z,102186.56
2022-10-11T03:21:41.342Z,102209.28
2022-10-11T03:25:52.940Z,102189.06
2022-10-11T03:30:05.210Z,102191.94
2022-10-11T03:34:16.766Z,102194.78
2022-10-11T03:38:28.553Z,102207.56
2022-10-11T03:42:40.825Z,102220.13
2022-10-11T03:46:52.442Z,102209.28
2022-10-11T03:51:04.334Z,102218.13
2022-10-11T03:55:16.038Z,102213.31
2022-10-11T03:59:27.593Z,102222.81
2022-10-11T04:03:39.154Z,102214.97
2022-10-11T04:07:51.399Z,102225.66
2022-10-11T04:12:03.681Z,102229.00
2022-10-11T04:16:15.504Z,102226.19
2022-10-11T04:20:27.054Z,102229.34
2022-10-11T04:24:38.586Z,102233.53
2022-10-11T04:28:50.359Z,102236.22
2022-10-11T04:33:02.268Z,102248.78
2022-10-11T04:37:13.977Z,102249.44
2022-10-11T04:41:25.516Z,102255.13
2022-10-11T04:45:37.151Z,102246.06
2022-10-11T04:49:48.705Z,102259.44
2022-10-11T04:54:00.313Z,102251.75
2022-10-11T04:58:11.823Z,102262.59
2022-10-11T05:02:23.450Z,102256.88
2022-10-11T05:06:35.091Z,102262.03
2022-10-11T05:11:06.364Z,102274.72
2022-10-11T05:15:18.073Z,102246.78
2022-10-11T05:19:29.624Z,102248.09
2022-10-11T05:23:41.730Z,102267.28
2022-10-11T05:27:53.333Z,102254.72
2022-10-11T05:32:05.075Z,102260.53
2022-10-11T05:36:16.790Z,102253.13
2022-10-11T05:40:28.380Z,102272.88
2022-10-11T05:44:39.996Z,102273.19
2022-10-11T05:48:51.548Z,102271.66
2022-10-11T05:53:04.086Z,102264.47
2022-10-11T05:57:16.151Z,102285.31
2022-10-11T06:01:27.999Z,102299.03
2022-10-11T06:05:40.054Z,102311.25
2022-10-11T06:09:52.093Z,102284.19
2022-10-11T06:14:03.835Z,102299.25
2022-10-11T06:18:15.368Z,102302.78
2022-10-11T06:22:27.492Z,102300.03
2022-10-11T06:26:39.147Z,102314.13
2022-10-11T06:30:50.646Z,102330.06
2022-10-11T06:35:03.357Z,102315.41
2022-10-11T06:39:14.954Z,102327.81
2022-10-11T06:43:26.679Z,102334.88
2022-10-11T06:47:38.170Z,102341.44
2022-10-11T06:51:49.637Z,102337.59
2022-10-11T06:56:11.822Z,102351.28
2022-10-11T07:00:23.307Z,102350.56
2022-10-11T07:04:34.805Z,102356.16
2022-10-11T07:08:47.025Z,102361.03
2022-10-11T07:12:58.501Z,102360.69
2022-10-11T07:17:09.996Z,102362.91
2022-10-11T07:21:21.943Z,102359.34
2022-10-11T07:25:33.488Z,102366.94
2022-10-11T07:29:45.085Z,102377.25
2022-10-11T07:33:56.635Z,102364.22
2022-10-11T07:38:08.538Z,102378.59
2022-10-11T07:42:20.094Z,102374.00
2022-10-11T07:46:31.838Z,102378.16
2022-10-11T07:50:43.435Z,102385.66
2022-10-11T07:54:55.003Z,102391.56
2022-10-11T07:59:08.020Z,102397.28
2022-10-11T08:03:19.624Z,102400.97
2022-10-11T08:07:31.210Z,102395.91
2022-10-11T08:11:42.815Z,102398.25
2022-10-11T08:15:54.946Z,102404.97
2022-10-11T08:20:06.736Z,102408.41
2022-10-11T08:24:20.828Z,102415.44
2022-10-11T08:28:33.156Z,102416.41
2022-10-11T08:32:44.786Z,102402.69
2022-10-11T08:36:56.324Z,102422.38
2022-10-11T08:41:26.218Z,102433.41
2022-10-11T08:45:50.221Z,102434.66
2022-10-11T08:50:03.850Z,102425.97
2022-10-11T08:54:34.374Z,102437.00
2022-10-11T08:58:57.627Z,102423.13
2022-10-11T09:03:39.468Z,102435.34
2022-10-11T09:08:13.863Z,102427.22
2022-10-11T09:12:46.888Z,102437.88
2022-10-11T09:17:23.269Z,102431.84
2022-10-11T09:21:34.779Z,102435.50
2022-10-11T09:26:05.443Z,102434.69
2022-10-11T09:30:19.477Z,102440.03
2022-10-11T09:34:33.526Z,102446.56
2022-10-11T09:39:12.874Z,102446.84
2022-10-11T09:43:24.630Z,102441.41
2022-10-11T09:47:36.197Z,102451.56
2022-10-11T09:51:56.725Z,102446.59
2022-10-11T09:56:09.242Z,102445.47
2022-10-11T10:00:24.493Z,102449.59
2022-10-11T10:04:57.014Z,102446.84
2022-10-11T10:09:30.186Z,102446.84
2022-10-11T10:13:45.210Z,102446.28
2022-10-11T10:17:57.182Z,102444.09
2022-10-11T10:22:26.993Z,102438.91
2022-10-11T10:26:40.203Z,102446.03
2022-10-11T10:30:54.362Z,102444.88
2022-10-11T10:35:21.905Z,102435.84
2022-10-11T10:39:50.853Z,102435.25
2022-10-11T10:44:03.182Z,102427.88
2022-10-11T10:49:19.115Z,102431.22
2022-10-11T10:53:33.104Z,102440.28
2022-10-11T10:58:13.986Z,102433.94
2022-10-11T11:02:50.286Z,102433.41
2022-10-11T11:07:16.976Z,102419.94
2022-10-11T11:11:28.462Z,102413.88
2022-10-11T11:15:52.982Z,102422.63
2022-10-11T11:20:27.336Z,102414.75
2022-10-11T11:25:04.242Z,102415.56
2022-10-11T11:29:22.200Z,102402.66
2022-10-11T11:33:47.816Z,102402.38
2022-10-11T11:38:29.522Z,102389.16
2022-10-11T11:42:47.532Z,102386.97
2022-10-11T11:47:17.992Z,102380.91
2022-10-11T11:51:38.969Z,102377.81
2022-10-11T11:56:28.074Z,102383.69
2022-10-11T12:01:03.015Z,102377.34
2022-10-11T12:05:19.050Z,102384.47
2022-10-11T12:09:32.209Z,102379.03
2022-10-11T12:13:44.622Z,102365.16
2022-10-11T12:17:56.104Z,102375.91
2022-10-11T12:22:58.465Z,102356.00
2022-10-11T12:27:37.223Z,102366.56
2022-10-11T12:32:14.101Z,102356.47
2022-10-11T12:36:31.416Z,102353.28
2022-10-11T12:40:47.024Z,102350.41
2022-10-11T12:45:10.777Z,102337.06
2022-10-11T12:49:55.821Z,102338.53
2022-10-11T12:54:29.143Z,102331.03
2022-10-11T12:58:48.074Z,102331.81
2022-10-11T13:03:05.831Z,102337.81
2022-10-11T13:07:23.562Z,102339.97
2022-10-11T13:11:40.340Z,102343.53
2022-10-11T13:15:54.075Z,102336.03
2022-10-11T13:20:20.694Z,102339.56
2022-10-11T13:24:40.061Z,102334.44
2022-10-11T13:28:51.850Z,102327.28
2022-10-11T13:33:11.126Z,102324.34
2022-10-11T13:37:26.053Z,102330.22
2022-10-11T13:41:37.723Z,102305.97
2022-10-11T13:45:49.375Z,102314.97
2022-10-11T13:50:31.604Z,102314.84
2022-10-11T13:54:58.893Z,102313.88
2022-10-11T13:59:18.955Z,102299.72
2022-10-11T14:03:40.560Z,102304.69
2022-10-11T14:07:52.370Z,102309.47
2022-10-11T14:12:25.843Z,102309.56
2022-10-11T14:16:37.482Z,102299.22
2022-10-11T14:20:49.061Z,102301.06
2022-10-11T14:25:00.630Z,102299.97
2022-10-11T14:29:33.878Z,102309.09
2022-10-11T14:33:45.636Z,102299.63
2022-10-11T14:37:58.060Z,102306.44
2022-10-11T14:42:11.937Z,102301.59
2022-10-11T14:46:26.405Z,102294.50
2022-10-11T14:50:52.647Z,102295.94
2022-10-11T14:55:04.659Z,102286.50
2022-10-11T14:59:18.430Z,102299.63
2022-10-11T15:03:30.030Z,102292.28
2022-10-11T15:07:41.641Z,102283.13
2022-10-11T15:11:54.787Z,102281.41
2022-10-11T15:16:07.360Z,102286.34
2022-10-11T15:20:40.937Z,102293.00
2022-10-11T15:24:52.523Z,102279.75
2022-10-11T15:29:04.490Z,102274.06
2022-10-11T15:33:16.044Z,102278.19
2022-10-11T15:37:27.602Z,102261.41
2022-10-11T15:41:39.219Z,102277.03
2022-10-11T15:45:50.815Z,102270.75
2022-10-11T15:50:02.459Z,102262.22
2022-10-11T15:54:14.097Z,102255.47
2022-10-11T15:58:29.299Z,102262.94
2022-10-11T16:02:40.911Z,102255.72
2022-10-11T16:06:52.467Z,102255.47
2022-10-11T16:11:05.550Z,102245.28
2022-10-11T16:15:17.504Z,102248.97
2022-10-11T16:19:29.126Z,102242.44
2022-10-11T16:23:40.770Z,102244.00
2022-10-11T16:27:52.599Z,102252.16
2022-10-11T16:32:04.332Z,102252.38
2022-10-11T16:36:37.027Z,102248.97
2022-10-11T16:40:48.621Z,102252.63
2022-10-11T16:45:00.751Z,102249.75
2022-10-11T16:49:12.514Z,102258.88
2022-10-11T16:53:24.089Z,102264.84
2022-10-11T16:57:37.684Z,102265.88
2022-10-11T17:01:49.412Z,102263.97
2022-10-11T17:06:01.098Z,102261.44
2022-10-11T17:10:12.727Z,102265.59
2022-10-11T17:14:24.270Z,102265.53
2022-10-11T17:18:36.117Z,102261.13
2022-10-11T17:22:47.814Z,102263.13
2022-10-11T17:26:59.406Z,102266.34
2022-10-11T17:31:11.348Z,102265.16
2022-10-11T17:35:22.945Z,102262.31
2022-10-11T17:39:34.607Z,102266.53
2022-10-11T17:43:46.850Z,102273.44
2022-10-11T17:48:00.560Z,102275.94
2022-10-11T17:52:12.108Z,102281.97
2022-10-11T17:56:29.566Z,102276.59
2022-10-11T18:00:43.786Z,102279.06
2022-10-11T18:04:55.378Z,102281.38
2022-10-11T18:09:07.179Z,102274.28
2022-10-11T18:13:19.038Z,102271.81
2022-10-11T18:17:31.063Z,102275.97
2022-10-11T18:21:42.726Z,102279.69
2022-10-11T18:25:54.523Z,102282.16
2022-10-11T18:30:06.964Z,102281.56
2022-10-11T18:34:18.554Z,102273.84
2022-10-11T18:38:30.169Z,102273.88
2022-10-11T18:42:41.734Z,102281.53
2022-10-11T18:46:54.077Z,102275.03
2022-10-11T18:51:08.063Z,102279.41
2022-10-11T18:55:19.861Z,102261.88
2022-10-11T18:59:32.901Z,102274.31
2022-10-11T19:03:45.725Z,102257.66
2022-10-11T19:07:57.193Z,102275.66
2022-10-11T19:12:08.687Z,102262.50
2022-10-11T19:16:20.561Z,102273.06
2022-10-11T19:20:35.635Z,102269.06
2022-10-11T19:24:47.172Z,102269.41
2022-10-11T19:29:05.786Z,102263.94
2022-10-11T19:33:17.406Z,102257.22
2022-10-11T19:37:29.131Z,102258.88
2022-10-11T19:41:41.876Z,102255.84
2022-10-11T19:46:04.497Z,102248.75
2022-10-11T19:50:16.081Z,102250.75
2022-10-11T19:54:28.121Z,102252.38
2022-10-11T19:58:40.306Z,102255.81
2022-10-11T20:02:51.831Z,102250.13
2022-10-11T20:07:03.397Z,102241.13
2022-10-11T20:11:16.707Z,102248.94
2022-10-11T20:15:28.180Z,102249.50
2022-10-11T20:19:40.137Z,102240.28
2022-10-11T20:23:52.973Z,102244.59
2022-10-11T20:28:04.441Z,102249.44
2022-10-11T20:32:15.884Z,102256.19
2022-10-11T20:36:29.991Z,102248.72
2022-10-11T20:40:41.516Z,102243.72
2022-10-11T20:44:52.966Z,102245.31
2022-10-11T20:49:07.555Z,102242.81
2022-10-11T20:53:19.144Z,102243.56
2022-10-11T20:57:31.667Z,102245.41
2022-10-11T21:01:43.587Z,102248.19
2022-10-11T21:05:59.885Z,102246.03
2022-10-11T21:10:11.514Z,102240.97
2022-10-11T21:14:23.784Z,102250.63
2022-10-11T21:18:35.502Z,102253.97
2022-10-11T21:22:47.098Z,102259.06
2022-10-11T21:27:00.804Z,102250.81
2022-10-11T21:31:16.416Z,102242.59
2022-10-11T21:35:29.823Z,102260.00
2022-10-11T21:39:41.424Z,102252.75
2022-10-11T21:43:53.383Z,102251.63
2022-10-11T21:48:05.271Z,102249.84
2022-10-11T21:52:17.168Z,102218.31
2022-10-11T21:56:29.460Z,102258.63
2022-10-11T22:00:41.025Z,102253.50
2022-10-11T22:04:52.703Z,102261.75
2022-10-11T22:09:05.746Z,102249.06
2022-10-11T22:13:17.431Z,102249.47
2022-10-11T22:17:28.946Z,102257.69
2022-10-11T22:21:44.852Z,102248.38
2022-10-11T22:26:08.200Z,102243.34
2022-10-11T22:30:19.915Z,102246.41
2022-10-11T22:34:33.217Z,102250.09
2022-10-11T22:38:45.970Z,102238.56
2022-10-11T22:42:57.504Z,102242.00
2022-10-11T22:47:09.035Z,102243.34
2022-10-11T22:51:20.639Z,102236.84
2022-10-11T22:55:32.319Z,102231.22
2022-10-11T22:59:43.871Z,102223.19
2022-10-11T23:03:56.382Z,102220.03
2022-10-11T23:08:09.568Z,102223.28
2022-10-11T23:12:21.107Z,102236.28
2022-10-11T23:16:32.579Z,102238.88
2022-10-11T23:20:44.650Z,102234.03
2022-10-11T23:24:56.184Z,102246.59
2022-10-11T23:29:07.677Z,102233.06
2022-10-11T23:33:19.193Z,102238.78
2022-10-11T23:37:30.792Z,102240.31
2022-10-11T23:41:43.575Z,102239.47
2022-10-11T23:45:55.896Z,102233.47
2022-10-11T23:50:08.458Z,102232.63
2022-10-11T23:54:19.949Z,102229.94
2022-10-11T23:58:31.457Z,102222.81
